Time;durP1;ratioP1;P1;durP2;ratioP2;P2;SDS_P1;SDS_P2;PMS_P1;PMS_P2;Temp;Humidity;BMP_temperature;BMP_pressure;BME280_temperature;BME280_humidity;BME280_pressure;Samples;Min_cycle;Max_cycle;Signal;HPM_P1;HPM_P2
2024/02/20 00:01:30;;;;;;;7.20;3.67;;;10.20;99.90;;;;;;5082544;28;20471;-78
2024/02/20 00:03:59;;;;;;;3.70;3.50;;;10.20;99.90;;;;;;5074449;28;20459;-83
2024/02/20 00:06:27;;;;;;;3.23;3.03;;;10.30;99.90;;;;;;5070474;28;20525;-78
2024/02/20 00:08:56;;;;;;;5.00;3.83;;;10.30;99.90;;;;;;5068748;28;20451;-86
2024/02/20 00:11:24;;;;;;;4.27;3.47;;;10.20;99.90;;;;;;5070430;28;20546;-81
2024/02/20 00:13:54;;;;;;;3.80;3.60;;;10.20;99.90;;;;;;5067891;28;20471;-80
2024/02/20 00:16:22;;;;;;;3.53;3.33;;;10.30;99.90;;;;;;5069393;28;21086;-82
2024/02/20 00:18:51;;;;;;;3.70;3.43;;;10.20;99.90;;;;;;5066804;28;20539;-83
2024/02/20 00:21:19;;;;;;;3.60;3.40;;;10.20;99.90;;;;;;5066884;28;20559;-80
2024/02/20 00:23:47;;;;;;;3.63;3.33;;;10.20;99.90;;;;;;5072382;28;21070;-81
2024/02/20 00:26:16;;;;;;;3.40;3.30;;;10.20;99.90;;;;;;5065439;28;20439;-80
2024/02/20 00:28:44;;;;;;;4.13;3.83;;;10.20;99.90;;;;;;5070873;28;20469;-82
2024/02/20 00:31:15;;;;;;;3.23;3.03;;;10.20;99.90;;;;;;5065625;28;20475;-81
2024/02/20 00:33:44;;;;;;;3.83;3.50;;;10.20;1.00;;;;;;5067319;28;20956;-80
2024/02/20 00:36:12;;;;;;;4.20;3.90;;;10.20;1.00;;;;;;5067163;28;20459;-78
2024/02/20 00:38:40;;;;;;;3.30;3.10;;;10.20;1.00;;;;;;5065773;28;20538;-79
2024/02/20 00:41:08;;;;;;;3.77;3.47;;;10.10;1.00;;;;;;5070612;28;20467;-79
2024/02/20 00:43:37;;;;;;;4.20;3.90;;;10.10;1.00;;;;;;5064907;28;20451;-79
2024/02/20 00:46:05;;;;;;;4.17;3.83;;;10.10;12.20;;;;;;5067169;28;20447;-78
2024/02/20 00:48:35;;;;;;;3.67;3.47;;;10.10;1.00;;;;;;5070098;28;20439;-79
2024/02/20 00:51:07;;;;;;;3.70;3.40;;;10.10;9.00;;;;;;5067911;28;20537;-79
2024/02/20 00:53:35;;;;;;;4.60;4.30;;;10.10;38.00;;;;;;5065672;28;20505;-81
2024/02/20 00:56:03;;;;;;;4.43;3.57;;;10.10;1.00;;;;;;5071406;28;20537;-81
2024/02/20 00:58:31;;;;;;;4.77;4.30;;;10.10;1.00;;;;;;5065038;28;20468;-82
2024/02/20 01:01:00;;;;;;;4.27;3.97;;;10.10;26.80;;;;;;5066288;28;21051;-79
2024/02/20 01:03:29;;;;;;;4.43;4.13;;;10.20;1.00;;;;;;5066961;28;20965;-81
2024/02/20 01:05:59;;;;;;;4.63;4.33;;;10.10;1.00;;;;;;5066436;28;20439;-79
2024/02/20 01:08:27;;;;;;;4.90;4.50;;;10.10;1.00;;;;;;5064727;28;20449;-80
2024/02/20 01:10:55;;;;;;;4.60;4.30;;;10.10;1.00;;;;;;5064748;28;20872;-80
2024/02/20 01:13:23;;;;;;;5.03;4.63;;;10.20;1.00;;;;;;5067559;28;20448;-78
2024/02/20 01:15:51;;;;;;;4.13;3.83;;;10.10;1.00;;;;;;5066528;28;20531;-80
2024/02/20 01:18:19;;;;;;;3.77;3.60;;;10.10;1.00;;;;;;5063411;28;20578;-80
2024/02/20 01:20:48;;;;;;;4.40;4.10;;;10.00;1.00;;;;;;5063682;28;20542;-82
2024/02/20 01:23:17;;;;;;;4.03;3.83;;;10.10;99.90;;;;;;5067306;28;20550;-78
2024/02/20 01:25:45;;;;;;;4.23;3.93;;;10.00;99.90;;;;;;5067271;28;21024;-80
2024/02/20 01:28:14;;;;;;;4.77;4.10;;;10.00;99.90;;;;;;5071633;28;20496;-82
2024/02/20 01:30:43;;;;;;;3.93;3.67;;;10.00;99.90;;;;;;5065186;28;20481;-81
2024/02/20 01:33:12;;;;;;;3.73;3.40;;;9.90;99.90;;;;;;5067349;28;20861;-79
2024/02/20 01:35:42;;;;;;;4.50;4.20;;;9.90;99.90;;;;;;5068412;28;20968;-84
2024/02/20 01:38:11;;;;;;;4.23;3.97;;;9.90;99.90;;;;;;5064589;28;20479;-78
2024/02/20 01:40:40;;;;;;;3.90;3.60;;;9.80;99.90;;;;;;5067239;28;20475;-78
2024/02/20 01:43:09;;;;;;;3.93;3.63;;;9.90;99.90;;;;;;5060457;28;20460;-79
2024/02/20 01:45:37;;;;;;;4.13;3.80;;;9.90;99.90;;;;;;5063343;28;20527;-78
2024/02/20 01:48:07;;;;;;;4.00;3.70;;;9.90;99.90;;;;;;5062848;28;20454;-82
2024/02/20 01:50:36;;;;;;;3.60;3.40;;;9.80;99.90;;;;;;5064846;28;20505;-80
2024/02/20 01:53:06;;;;;;;3.80;3.53;;;9.80;99.90;;;;;;5063941;28;20462;-83
2024/02/20 01:55:34;;;;;;;4.60;3.70;;;9.80;99.90;;;;;;5063817;28;20479;-83
2024/02/20 01:58:04;;;;;;;3.90;3.37;;;9.80;99.90;;;;;;5060635;28;20470;-78
2024/02/20 02:00:33;;;;;;;3.47;3.30;;;9.90;99.90;;;;;;5059510;28;20470;-80
2024/02/20 02:03:01;;;;;;;4.40;3.30;;;9.90;99.90;;;;;;5064189;28;22478;-80
2024/02/20 02:05:29;;;;;;;4.13;3.83;;;9.90;99.90;;;;;;5064251;28;20446;-80
2024/02/20 02:07:59;;;;;;;6.77;3.73;;;9.80;99.90;;;;;;5067855;28;20959;-80
2024/02/20 02:10:27;;;;;;;6.33;3.67;;;9.90;99.90;;;;;;5065219;28;20968;-80
2024/02/20 02:12:56;;;;;;;3.80;3.50;;;9.80;99.90;;;;;;5064968;28;20520;-80
2024/02/20 02:15:26;;;;;;;3.47;3.17;;;9.80;99.90;;;;;;5067260;28;20443;-81
2024/02/20 02:17:54;;;;;;;3.97;3.73;;;9.80;99.90;;;;;;5064971;28;20468;-80
2024/02/20 02:20:22;;;;;;;4.70;4.40;;;9.90;99.90;;;;;;5065229;28;20578;-81
2024/02/20 02:22:51;;;;;;;3.50;3.30;;;9.90;99.90;;;;;;5065107;28;20557;-84
2024/02/20 02:25:19;;;;;;;3.83;3.50;;;9.80;99.90;;;;;;5068583;28;21013;-82
2024/02/20 02:27:48;;;;;;;4.20;3.67;;;9.90;99.90;;;;;;5068562;28;20451;-84
2024/02/20 02:30:17;;;;;;;3.60;3.40;;;9.80;99.90;;;;;;5063854;28;20506;-80
2024/02/20 02:32:45;;;;;;;3.50;3.20;;;9.80;99.90;;;;;;5063101;28;20466;-80
2024/02/20 02:35:14;;;;;;;3.50;3.20;;;9.80;99.90;;;;;;5065383;28;20467;-80
2024/02/20 02:37:43;;;;;;;3.40;3.30;;;9.80;99.90;;;;;;5065594;28;20467;-82
2024/02/20 02:40:11;;;;;;;4.53;3.43;;;9.80;99.90;;;;;;5064117;28;20521;-81
2024/02/20 02:42:40;;;;;;;2.90;2.80;;;9.80;99.90;;;;;;5062256;28;20451;-78
2024/02/20 02:45:10;;;;;;;3.50;3.30;;;9.80;99.90;;;;;;5065111;28;20532;-81
2024/02/20 02:47:38;;;;;;;3.40;3.10;;;9.80;99.90;;;;;;5067188;28;20444;-85
2024/02/20 02:50:07;;;;;;;5.10;3.77;;;9.80;99.90;;;;;;5065347;28;20940;-83
2024/02/20 02:52:35;;;;;;;3.07;2.87;;;9.80;99.90;;;;;;5068398;28;20539;-82
2024/02/20 02:55:04;;;;;;;3.47;3.27;;;9.70;99.90;;;;;;5065385;28;20456;-83
2024/02/20 02:57:32;;;;;;;3.57;3.27;;;9.70;99.90;;;;;;5067050;28;20448;-81
2024/02/20 03:00:00;;;;;;;4.20;2.87;;;9.80;99.90;;;;;;5063103;28;20436;-79
2024/02/20 03:02:29;;;;;;;4.00;2.77;;;9.80;98.70;;;;;;5065783;28;20451;-79
2024/02/20 03:04:58;;;;;;;3.70;2.90;;;9.80;99.90;;;;;;5064015;28;20447;-80
2024/02/20 03:07:26;;;;;;;3.47;3.17;;;9.80;99.90;;;;;;5066796;28;20458;-80
2024/02/20 03:09:54;;;;;;;3.87;3.30;;;9.80;99.90;;;;;;5064566;28;20458;-79
2024/02/20 03:12:22;;;;;;;3.47;3.27;;;9.70;84.30;;;;;;5069211;28;20447;-79
2024/02/20 03:14:52;;;;;;;3.30;3.10;;;9.70;64.90;;;;;;5070657;28;20479;-81
2024/02/20 03:17:20;;;;;;;3.67;3.47;;;9.70;99.90;;;;;;5071826;28;20453;-80
2024/02/20 03:19:50;;;;;;;2.80;2.60;;;9.70;90.80;;;;;;5071049;28;21018;-80
2024/02/20 03:22:19;;;;;;;3.40;3.20;;;9.80;89.90;;;;;;5068803;28;20447;-79
2024/02/20 03:24:47;;;;;;;6.23;3.80;;;9.70;73.20;;;;;;5072771;28;20455;-79
2024/02/20 03:27:15;;;;;;;4.20;3.23;;;9.70;89.80;;;;;;5071347;28;20534;-80
2024/02/20 03:29:44;;;;;;;5.63;3.10;;;9.70;94.70;;;;;;5069286;28;20446;-78
2024/02/20 03:32:12;;;;;;;3.10;2.80;;;9.60;99.90;;;;;;5067513;28;20561;-82
2024/02/20 03:34:40;;;;;;;3.30;3.10;;;9.70;93.50;;;;;;5070996;28;20451;-79
2024/02/20 03:37:09;;;;;;;4.07;3.50;;;9.60;99.80;;;;;;5067613;28;20459;-80
2024/02/20 03:39:38;;;;;;;3.17;2.97;;;9.60;70.50;;;;;;5068260;28;20475;-78
2024/02/20 03:42:06;;;;;;;5.03;3.77;;;9.60;83.10;;;;;;5064845;28;20468;-79
2024/02/20 03:44:37;;;;;;;5.23;3.30;;;9.70;76.30;;;;;;5067222;28;20450;-80
2024/02/20 03:47:05;;;;;;;4.60;3.17;;;9.70;46.90;;;;;;5069265;28;20475;-81
2024/02/20 03:49:33;;;;;;;3.60;3.30;;;9.70;35.50;;;;;;5071132;28;20443;-81
2024/02/20 03:52:02;;;;;;;4.50;2.50;;;9.70;3.20;;;;;;5069515;28;20645;-80
2024/02/20 03:54:32;;;;;;;5.30;3.30;;;9.60;1.00;;;;;;5067511;28;20468;-78
2024/02/20 03:57:00;;;;;;;8.37;3.00;;;9.60;1.00;;;;;;5069239;28;20480;-79
2024/02/20 03:59:29;;;;;;;3.90;2.87;;;9.50;1.00;;;;;;5070213;28;20471;-78
2024/02/20 04:01:57;;;;;;;3.03;2.83;;;9.50;1.00;;;;;;5065730;28;20498;-81
2024/02/20 04:04:25;;;;;;;3.40;3.10;;;9.50;6.50;;;;;;5068010;28;20458;-82
2024/02/20 04:06:53;;;;;;;5.87;3.67;;;9.50;1.00;;;;;;5067757;28;20505;-80
2024/02/20 04:09:21;;;;;;;3.53;3.30;;;9.50;1.00;;;;;;5069216;28;20446;-78
2024/02/20 04:11:51;;;;;;;3.87;3.10;;;9.40;1.00;;;;;;5066754;28;21087;-82
2024/02/20 04:14:19;;;;;;;3.43;3.10;;;9.50;1.00;;;;;;5068960;28;20440;-78
2024/02/20 04:16:47;;;;;;;3.27;2.93;;;9.50;1.00;;;;;;5070183;28;20444;-80
2024/02/20 04:19:15;;;;;;;5.70;3.37;;;9.40;1.00;;;;;;5064684;28;21383;-81
2024/02/20 04:21:44;;;;;;;5.47;2.80;;;9.40;1.00;;;;;;5068921;28;20558;-79
2024/02/20 04:24:12;;;;;;;3.63;3.33;;;9.40;1.00;;;;;;5067659;28;20509;-80
2024/02/20 04:26:40;;;;;;;5.70;3.33;;;9.50;1.00;;;;;;5068174;28;20821;-81
2024/02/20 04:29:10;;;;;;;3.63;3.33;;;9.50;1.00;;;;;;5065695;28;21089;-80
2024/02/20 04:31:38;;;;;;;6.00;3.20;;;9.40;1.00;;;;;;5067673;28;21354;-80
2024/02/20 04:34:06;;;;;;;2.97;2.77;;;9.40;1.00;;;;;;5065417;28;20454;-84
2024/02/20 04:36:34;;;;;;;4.57;3.00;;;9.50;1.00;;;;;;5071005;28;20457;-80
2024/02/20 04:39:03;;;;;;;3.97;3.60;;;9.40;1.00;;;;;;5069884;28;20471;-80
2024/02/20 04:41:31;;;;;;;4.33;2.80;;;9.40;1.00;;;;;;5065610;28;20468;-83
2024/02/20 04:43:59;;;;;;;4.50;3.50;;;9.30;1.00;;;;;;5068134;28;20959;-80
2024/02/20 04:46:29;;;;;;;5.40;2.80;;;9.20;1.00;;;;;;5065589;28;21026;-80
2024/02/20 04:48:58;;;;;;;5.43;3.20;;;9.30;1.00;;;;;;5068303;28;20475;-81
2024/02/20 04:51:27;;;;;;;4.20;3.03;;;9.20;1.00;;;;;;5068242;28;20896;-80
2024/02/20 04:53:55;;;;;;;3.87;3.43;;;9.20;1.00;;;;;;5063745;28;20455;-79
2024/02/20 04:56:23;;;;;;;3.40;2.70;;;9.20;1.00;;;;;;5067601;28;20526;-79
2024/02/20 04:58:52;;;;;;;4.60;3.10;;;9.20;1.00;;;;;;5068179;28;20468;-80
2024/02/20 05:01:22;;;;;;;3.57;3.27;;;9.20;1.00;;;;;;5064489;28;20525;-79
2024/02/20 05:03:52;;;;;;;4.97;3.10;;;9.20;1.00;;;;;;5069823;28;21024;-79
2024/02/20 05:06:20;;;;;;;10.10;3.83;;;9.10;1.00;;;;;;5064884;28;20448;-80
2024/02/20 05:08:48;;;;;;;5.70;2.87;;;9.10;1.00;;;;;;5067076;28;20484;-83
2024/02/20 05:11:16;;;;;;;3.47;3.20;;;9.10;1.00;;;;;;5064004;28;20478;-78
2024/02/20 05:13:44;;;;;;;4.10;2.90;;;9.20;1.00;;;;;;5065511;28;20961;-79
2024/02/20 05:16:12;;;;;;;4.70;3.60;;;9.10;1.00;;;;;;5063351;28;20518;-78
2024/02/20 05:18:41;;;;;;;4.83;2.83;;;9.10;1.00;;;;;;5066627;28;20447;-79
2024/02/20 05:21:11;;;;;;;5.63;3.07;;;9.20;1.00;;;;;;5064458;28;20471;-78
2024/02/20 05:23:39;;;;;;;5.90;2.90;;;9.10;1.00;;;;;;5067304;28;20825;-80
2024/02/20 05:26:09;;;;;;;4.67;3.20;;;9.00;1.00;;;;;;5070310;28;20455;-79
2024/02/20 05:28:37;;;;;;;3.10;2.80;;;9.00;1.00;;;;;;5057746;28;20452;-79
2024/02/20 05:31:27;;;;;;;6.15;4.20;;;9.00;1.00;;;;;;5062476;28;20438;-81
2024/02/20 05:33:56;;;;;;;6.40;3.67;;;9.00;1.00;;;;;;5062114;28;20205;-79
2024/02/20 05:36:29;;;;;;;6.67;3.33;;;9.00;1.00;;;;;;5065554;28;20466;-79
2024/02/20 05:39:00;;;;;;;6.57;3.10;;;9.00;1.00;;;;;;5062330;28;20442;-79
2024/02/20 05:41:29;;;;;;;7.97;3.50;;;9.00;1.00;;;;;;5067425;28;20561;-83
2024/02/20 05:43:58;;;;;;;3.43;3.13;;;9.00;1.00;;;;;;5063778;28;20456;-78
2024/02/20 05:46:28;;;;;;;7.73;3.60;;;9.00;1.00;;;;;;5063821;28;20489;-82
2024/02/20 05:48:56;;;;;;;7.43;3.30;;;8.90;1.00;;;;;;5063598;28;20451;-81
2024/02/20 05:51:28;;;;;;;5.30;4.83;;;8.90;1.00;;;;;;5064039;28;20467;-79
2024/02/20 05:53:56;;;;;;;3.23;2.57;;;8.90;1.00;;;;;;5059999;28;21164;-80
2024/02/20 05:56:25;;;;;;;3.07;2.90;;;9.00;1.00;;;;;;5059902;28;21006;-79
2024/02/20 05:58:53;;;;;;;5.07;2.80;;;9.00;1.00;;;;;;5063699;28;20458;-81
2024/02/20 06:01:21;;;;;;;5.53;2.90;;;9.00;1.00;;;;;;5063729;28;20548;-80
2024/02/20 06:03:49;;;;;;;7.17;2.63;;;9.00;1.00;;;;;;5062184;28;20534;-80
2024/02/20 06:06:18;;;;;;;2.70;2.50;;;8.90;1.00;;;;;;5060513;28;20452;-79
2024/02/20 06:08:49;;;;;;;11.50;3.10;;;9.00;1.00;;;;;;5066243;28;20443;-79
2024/02/20 06:11:21;;;;;;;2.83;2.50;;;9.00;1.00;;;;;;5062455;28;20471;-81
2024/02/20 06:13:50;;;;;;;8.10;2.60;;;9.00;1.00;;;;;;5062619;28;20447;-81
2024/02/20 06:16:20;;;;;;;18.83;3.40;;;9.10;1.00;;;;;;5062261;28;20461;-78
2024/02/20 06:18:48;;;;;;;5.70;3.30;;;9.00;1.00;;;;;;5065848;28;20450;-80
2024/02/20 06:21:16;;;;;;;7.43;2.90;;;9.00;1.00;;;;;;5063121;28;20475;-81
2024/02/20 06:23:45;;;;;;;8.73;3.10;;;8.90;1.00;;;;;;5064795;28;20444;-79
2024/02/20 06:26:17;;;;;;;8.23;4.03;;;9.00;1.00;;;;;;5064965;28;20438;-80
2024/02/20 06:28:46;;;;;;;4.13;3.47;;;8.90;1.00;;;;;;5055686;28;20198;-82
2024/02/20 06:31:14;;;;;;;3.97;2.60;;;9.00;1.00;;;;;;5059880;28;21022;-81
2024/02/20 06:33:43;;;;;;;3.93;2.93;;;9.00;1.00;;;;;;5062281;28;20475;-79
2024/02/20 06:36:11;;;;;;;4.93;3.27;;;9.00;1.00;;;;;;5061763;28;20504;-83
2024/02/20 06:38:40;;;;;;;5.23;2.63;;;9.00;1.00;;;;;;5064577;28;20451;-79
2024/02/20 06:41:08;;;;;;;3.10;2.30;;;9.10;1.00;;;;;;5062860;28;20515;-80
2024/02/20 06:43:38;;;;;;;3.33;2.40;;;9.10;1.00;;;;;;5066029;28;21082;-79
2024/02/20 06:46:06;;;;;;;4.23;2.40;;;9.00;1.00;;;;;;5059438;28;21246;-81
2024/02/20 06:48:35;;;;;;;5.27;3.77;;;9.00;1.00;;;;;;5062589;28;20459;-80
2024/02/20 06:51:03;;;;;;;7.57;3.77;;;9.00;1.00;;;;;;5062709;28;20479;-80
2024/02/20 06:53:31;;;;;;;5.87;2.80;;;9.00;1.00;;;;;;5065120;28;20843;-81
2024/02/20 06:55:59;;;;;;;6.20;2.60;;;9.00;1.00;;;;;;5064501;28;20439;-83
2024/02/20 06:58:28;;;;;;;6.77;2.53;;;9.00;1.00;;;;;;5064186;28;20448;-82
2024/02/20 07:00:57;;;;;;;2.90;2.40;;;9.10;1.00;;;;;;5063149;28;20984;-81
2024/02/20 07:03:26;;;;;;;6.13;3.20;;;9.00;1.00;;;;;;5060449;28;20456;-81
2024/02/20 07:05:54;;;;;;;6.10;2.83;;;9.10;1.00;;;;;;5061096;28;21045;-80
2024/02/20 07:08:22;;;;;;;7.20;3.60;;;9.00;1.00;;;;;;5059123;28;20456;-79
2024/02/20 07:10:50;;;;;;;4.83;3.43;;;9.00;1.00;;;;;;5060634;28;20554;-79
2024/02/20 07:13:19;;;;;;;4.37;3.73;;;9.00;1.00;;;;;;5063558;28;20444;-77
2024/02/20 07:15:47;;;;;;;5.97;3.47;;;9.00;1.00;;;;;;5060546;28;20467;-81
2024/02/20 07:18:17;;;;;;;5.10;3.20;;;9.10;1.00;;;;;;5059042;28;20539;-80
2024/02/20 07:20:45;;;;;;;6.67;3.13;;;9.00;1.00;;;;;;5056374;28;20530;-79
2024/02/20 07:23:13;;;;;;;6.43;3.20;;;9.00;1.00;;;;;;5061388;28;21224;-79
2024/02/20 07:25:41;;;;;;;4.63;2.70;;;9.00;1.00;;;;;;5061749;28;20462;-80
2024/02/20 07:28:11;;;;;;;9.17;3.03;;;9.00;1.00;;;;;;5059099;28;21163;-78
2024/02/20 07:30:39;;;;;;;5.43;2.90;;;9.10;1.00;;;;;;5062549;28;20467;-78
2024/02/20 07:33:07;;;;;;;6.73;3.80;;;9.10;1.00;;;;;;5062451;28;20462;-80
2024/02/20 07:35:38;;;;;;;4.93;3.40;;;9.10;1.00;;;;;;5062045;28;20502;-79
2024/02/20 07:38:06;;;;;;;6.10;3.07;;;9.10;1.00;;;;;;5075785;28;20492;-79
2024/02/20 07:40:35;;;;;;;6.60;3.10;;;9.10;1.00;;;;;;5062547;28;20527;-82
2024/02/20 07:43:03;;;;;;;4.93;3.03;;;9.10;1.00;;;;;;5063241;28;20447;-82
2024/02/20 07:45:31;;;;;;;4.67;3.30;;;9.10;1.00;;;;;;5061848;28;20451;-81
2024/02/20 07:48:00;;;;;;;9.83;3.33;;;9.10;1.00;;;;;;5060535;28;20454;-78
2024/02/20 07:50:28;;;;;;;9.07;2.90;;;9.20;1.00;;;;;;5058619;28;20464;-81
2024/02/20 07:52:58;;;;;;;5.30;2.93;;;9.30;1.00;;;;;;5057702;28;20599;-79
2024/02/20 07:55:26;;;;;;;5.97;3.13;;;9.30;1.00;;;;;;5057060;28;20489;-80
2024/02/20 07:57:54;;;;;;;6.13;2.60;;;9.30;1.00;;;;;;5062494;28;20462;-79
2024/02/20 08:00:23;;;;;;;4.90;2.93;;;9.40;1.00;;;;;;5065646;28;20471;-80
2024/02/20 08:02:52;;;;;;;3.37;2.87;;;9.40;99.90;;;;;;5063425;28;20457;-78
2024/02/20 08:05:20;;;;;;;8.23;3.30;;;9.40;99.90;;;;;;5064710;28;20524;-78
2024/02/20 08:07:48;;;;;;;7.03;2.80;;;9.40;99.90;;;;;;5064711;28;20964;-79
2024/02/20 08:10:18;;;;;;;4.33;2.93;;;9.50;99.90;;;;;;5063927;28;20462;-79
2024/02/20 08:12:46;;;;;;;6.70;2.93;;;9.60;99.90;;;;;;5062999;28;20533;-80
2024/02/20 08:15:14;;;;;;;7.23;2.80;;;9.60;99.90;;;;;;5063761;28;20527;-78
2024/02/20 08:17:43;;;;;;;10.80;2.97;;;9.70;99.90;;;;;;5058482;28;20460;-79
2024/02/20 08:20:12;;;;;;;6.20;3.00;;;9.70;99.90;;;;;;5061411;28;20440;-79
2024/02/20 08:22:41;;;;;;;5.47;3.00;;;9.80;99.90;;;;;;5062099;28;20444;-79
2024/02/20 08:25:09;;;;;;;6.77;2.67;;;9.90;99.90;;;;;;5060601;28;20478;-79
2024/02/20 08:27:39;;;;;;;5.63;2.53;;;10.00;99.90;;;;;;5057712;28;20447;-77
2024/02/20 08:30:09;;;;;;;5.83;3.17;;;9.90;99.90;;;;;;5062724;28;20455;-78
2024/02/20 08:32:43;;;;;;;7.90;2.73;;;9.80;99.90;;;;;;5062273;28;20522;-79
2024/02/20 08:35:12;;;;;;;6.83;3.30;;;9.70;99.90;;;;;;5061402;28;20976;-80
2024/02/20 08:37:40;;;;;;;5.33;3.50;;;9.70;99.90;;;;;;5058202;28;20543;-79
2024/02/20 08:40:09;;;;;;;7.10;3.63;;;9.70;99.90;;;;;;5064156;28;20459;-80
2024/02/20 08:42:38;;;;;;;10.80;4.43;;;9.80;99.90;;;;;;5064187;28;20556;-79
2024/02/20 08:45:08;;;;;;;4.50;3.10;;;9.70;99.90;;;;;;5060233;28;20964;-78
2024/02/20 08:47:36;;;;;;;8.50;3.30;;;9.80;99.90;;;;;;5057728;28;20459;-79
2024/02/20 08:50:06;;;;;;;4.47;3.23;;;9.80;99.90;;;;;;5063099;28;20458;-77
2024/02/20 08:52:34;;;;;;;6.57;3.40;;;9.80;99.90;;;;;;5063487;28;20543;-79
2024/02/20 08:55:03;;;;;;;6.57;2.90;;;9.90;99.90;;;;;;5062521;28;20518;-79
2024/02/20 08:57:32;;;;;;;3.93;2.73;;;9.80;99.90;;;;;;5066054;28;20455;-80
2024/02/20 09:00:01;;;;;;;4.03;3.30;;;9.70;99.90;;;;;;5065339;28;21074;-81
2024/02/20 09:02:29;;;;;;;10.47;3.27;;;9.80;99.90;;;;;;5062203;28;20555;-79
2024/02/20 09:04:58;;;;;;;4.00;3.07;;;9.90;99.90;;;;;;5062438;28;20483;-80
2024/02/20 09:07:26;;;;;;;5.00;3.37;;;9.80;99.90;;;;;;5066513;28;20480;-82
2024/02/20 09:09:55;;;;;;;6.43;3.13;;;9.90;99.90;;;;;;5061316;28;20493;-78
2024/02/20 09:12:25;;;;;;;7.93;3.27;;;9.80;99.90;;;;;;5064231;28;20443;-80
2024/02/20 09:14:53;;;;;;;6.50;3.77;;;9.90;99.90;;;;;;5064333;28;20454;-79
2024/02/20 09:17:23;;;;;;;6.20;3.90;;;9.90;99.90;;;;;;5068595;28;20952;-80
2024/02/20 09:19:51;;;;;;;6.30;2.60;;;9.70;99.90;;;;;;5061354;28;20458;-79
2024/02/20 09:22:20;;;;;;;8.60;3.50;;;9.80;99.90;;;;;;5064010;28;20601;-78
2024/02/20 09:24:48;;;;;;;7.70;3.37;;;9.80;99.90;;;;;;5063957;28;20562;-79
2024/02/20 09:27:16;;;;;;;5.30;3.37;;;9.80;99.90;;;;;;5066600;28;20463;-83
2024/02/20 09:29:45;;;;;;;7.53;3.27;;;9.80;99.90;;;;;;5064007;28;20435;-79
2024/02/20 09:32:14;;;;;;;5.77;3.23;;;9.90;99.90;;;;;;5063902;28;20521;-79
2024/02/20 09:34:44;;;;;;;10.37;3.90;;;9.80;99.90;;;;;;5068181;28;20465;-81
2024/02/20 09:37:12;;;;;;;9.00;3.40;;;9.90;99.90;;;;;;5062520;28;20466;-80
2024/02/20 09:39:41;;;;;;;5.80;3.63;;;9.90;99.90;;;;;;5064798;28;20459;-78
2024/02/20 09:42:14;;;;;;;6.47;3.30;;;9.90;99.90;;;;;;5061237;28;21429;-82
2024/02/20 09:44:43;;;;;;;6.20;3.10;;;9.90;99.90;;;;;;5068472;28;20451;-80
2024/02/20 09:47:12;;;;;;;5.63;3.23;;;10.10;99.90;;;;;;5064109;28;20443;-79
2024/02/20 09:49:40;;;;;;;7.40;3.40;;;10.40;99.90;;;;;;5060372;28;21028;-81
2024/02/20 09:52:12;;;;;;;6.80;3.50;;;10.70;99.90;;;;;;5065907;28;20536;-80
2024/02/20 09:54:43;;;;;;;9.50;4.03;;;10.80;99.90;;;;;;5063249;28;20440;-81
2024/02/20 09:57:12;;;;;;;7.30;3.80;;;10.90;99.90;;;;;;5061444;28;20478;-80
2024/02/20 09:59:40;;;;;;;4.87;3.30;;;10.90;99.90;;;;;;5065028;28;20486;-80
2024/02/20 10:02:14;;;;;;;7.03;3.80;;;10.90;99.90;;;;;;5064242;28;20486;-81
2024/02/20 10:04:44;;;;;;;5.23;3.73;;;11.50;99.90;;;;;;5065297;28;20478;-80
2024/02/20 10:07:16;;;;;;;7.03;3.67;;;12.20;99.90;;;;;;5063311;28;20831;-82
2024/02/20 10:09:45;;;;;;;7.17;3.37;;;12.40;99.90;;;;;;5064249;28;20462;-81
2024/02/20 10:12:21;;;;;;;4.17;3.10;;;13.30;99.90;;;;;;5063321;28;20483;-78
2024/02/20 10:14:49;;;;;;;8.17;3.70;;;14.20;99.90;;;;;;5066869;28;20458;-81
2024/02/20 10:17:18;;;;;;;5.43;2.80;;;15.10;99.90;;;;;;5063940;28;20447;-81
2024/02/20 10:19:47;;;;;;;6.00;4.53;;;16.00;99.90;;;;;;5066835;28;20952;-82
2024/02/20 10:22:25;;;;;;;7.03;3.63;;;17.00;99.90;;;;;;5067170;28;21007;-81
2024/02/20 10:25:03;;;;;;;6.30;4.03;;;16.90;99.90;;;;;;5065173;28;20443;-80
2024/02/20 10:27:33;;;;;;;6.40;3.50;;;15.90;99.90;;;;;;5061918;28;20888;-81
2024/02/20 10:30:03;;;;;;;8.77;3.97;;;14.90;99.90;;;;;;5058666;28;21037;-80
2024/02/20 10:32:34;;;;;;;5.27;3.20;;;14.20;99.90;;;;;;5063761;28;20471;-81
2024/02/20 10:35:03;;;;;;;6.17;3.10;;;13.60;99.90;;;;;;5061621;28;21148;-80
2024/02/20 10:37:32;;;;;;;8.13;3.50;;;13.20;99.90;;;;;;5062657;28;20456;-80
2024/02/20 10:40:07;;;;;;;4.73;3.23;;;13.50;99.90;;;;;;5063108;28;20439;-80
2024/02/20 10:42:55;;;;;;;7.77;3.40;;;14.50;99.90;;;;;;5067457;28;20540;-81
2024/02/20 10:45:24;;;;;;;6.77;3.07;;;14.90;99.90;;;;;;5065358;28;20448;-82
2024/02/20 10:47:55;;;;;;;9.07;3.63;;;14.30;99.90;;;;;;5061108;28;20480;-79
2024/02/20 10:50:24;;;;;;;7.97;3.10;;;13.70;99.90;;;;;;5063572;28;20459;-79
2024/02/20 10:52:54;;;;;;;4.43;2.90;;;13.30;99.90;;;;;;5063938;28;20522;-79
2024/02/20 10:55:24;;;;;;;8.70;3.80;;;12.80;99.90;;;;;;5066751;28;20499;-78
2024/02/20 10:58:02;;;;;;;4.40;2.90;;;12.70;99.90;;;;;;5067730;28;20494;-78
2024/02/20 11:00:34;;;;;;;6.90;3.40;;;15.80;99.90;;;;;;5064178;28;20558;-81
2024/02/20 11:03:07;;;;;;;4.03;2.83;;;19.40;99.90;;;;;;5065502;28;20463;-78
2024/02/20 11:05:35;;;;;;;3.83;2.03;;;22.80;99.90;;;;;;5062195;28;20893;-77
2024/02/20 11:08:10;;;;;;;3.97;2.63;;;24.30;99.90;;;;;;5059215;28;20448;-82
2024/02/20 11:10:40;;;;;;;5.32;2.50;;;26.00;99.90;;;;;;5059213;28;20882;-81
2024/02/20 11:13:13;;;;;;;7.20;2.70;;;25.40;99.90;;;;;;5060674;28;20192;-79
2024/02/20 11:15:42;;;;;;;6.65;3.30;;;22.40;99.90;;;;;;5059071;28;20489;-81
2024/02/20 11:18:16;;;;;;;4.93;2.47;;;23.00;99.90;;;;;;5056851;28;20616;-82
2024/02/20 11:20:46;;;;;;;6.00;3.03;;;23.30;99.90;;;;;;5056395;28;20624;-83
2024/02/20 11:23:15;;;;;;;3.57;2.50;;;20.20;99.90;;;;;;5060458;28;20475;-78
2024/02/20 11:25:43;;;;;;;5.83;2.80;;;18.20;99.90;;;;;;5061269;28;20526;-79
2024/02/20 11:28:13;;;;;;;4.40;2.90;;;16.60;92.30;;;;;;5062356;28;20439;-82
2024/02/20 11:30:45;;;;;;;5.03;2.03;;;15.60;82.00;;;;;;5059056;28;20470;-82
2024/02/20 11:33:15;;;;;;;7.93;3.37;;;17.50;99.20;;;;;;5068095;28;20542;-81
2024/02/20 11:35:45;;;;;;;4.00;2.40;;;18.80;99.90;;;;;;5067093;28;20979;-81
2024/02/20 11:38:21;;;;;;;6.40;3.50;;;21.30;99.90;;;;;;5063427;28;20509;-81
2024/02/20 11:40:50;;;;;;;7.13;2.63;;;19.70;99.90;;;;;;5065502;28;20479;-80
2024/02/20 11:43:21;;;;;;;5.73;2.90;;;18.20;99.90;;;;;;5070429;28;20502;-81
2024/02/20 11:45:58;;;;;;;3.93;2.57;;;17.00;93.70;;;;;;5067677;28;20439;-83
2024/02/20 11:48:26;;;;;;;3.20;2.10;;;15.80;82.60;;;;;;5066804;28;20535;-82
2024/02/20 11:50:56;;;;;;;5.93;2.70;;;15.20;75.60;;;;;;5067370;28;20475;-82
2024/02/20 11:53:27;;;;;;;5.80;2.93;;;14.90;74.50;;;;;;5064373;28;20954;-80
2024/02/20 11:55:56;;;;;;;2.93;2.40;;;14.80;76.00;;;;;;5062483;28;20558;-81
2024/02/20 11:58:25;;;;;;;4.03;2.13;;;14.80;81.50;;;;;;5062433;28;20451;-83
2024/02/20 12:01:02;;;;;;;3.50;2.17;;;14.70;81.30;;;;;;5065189;28;20475;-82
2024/02/20 12:03:34;;;;;;;6.70;2.80;;;14.70;83.10;;;;;;5068172;28;20561;-82
2024/02/20 12:06:04;;;;;;;7.70;3.67;;;14.70;85.50;;;;;;5067622;28;20451;-80
2024/02/20 12:08:40;;;;;;;5.23;3.07;;;14.80;87.00;;;;;;5065477;28;20431;-83
2024/02/20 12:11:11;;;;;;;4.83;2.40;;;14.90;90.50;;;;;;5064774;28;20694;-80
2024/02/20 12:13:39;;;;;;;4.13;2.40;;;15.10;92.40;;;;;;5070290;28;20827;-78
2024/02/20 12:16:20;;;;;;;4.40;2.70;;;15.10;94.40;;;;;;5067439;28;21426;-83
2024/02/20 12:18:48;;;;;;;3.57;2.17;;;15.30;97.30;;;;;;5063355;28;20455;-83
2024/02/20 12:21:17;;;;;;;5.10;2.80;;;15.20;93.50;;;;;;5060983;28;20534;-80
2024/02/20 12:23:54;;;;;;;7.23;2.80;;;15.00;93.50;;;;;;5064245;28;20475;-81
2024/02/20 12:26:23;;;;;;;4.23;2.43;;;15.00;93.70;;;;;;5068004;28;20447;-79
2024/02/20 12:28:52;;;;;;;3.20;2.63;;;14.90;99.90;;;;;;5061402;28;20475;-84
2024/02/20 12:31:22;;;;;;;8.57;3.60;;;14.90;92.10;;;;;;5064589;28;20463;-80
2024/02/20 12:33:51;;;;;;;10.07;4.47;;;14.70;91.20;;;;;;5061376;28;20451;-80
2024/02/20 12:36:20;;;;;;;5.30;3.20;;;14.60;91.30;;;;;;5066590;28;21043;-81
2024/02/20 12:38:48;;;;;;;3.03;2.73;;;14.70;99.90;;;;;;5061983;28;20456;-81
2024/02/20 12:41:18;;;;;;;6.60;2.60;;;14.80;92.40;;;;;;5065214;28;20467;-81
2024/02/20 12:43:46;;;;;;;4.17;3.30;;;14.80;94.80;;;;;;5063455;28;20468;-80
2024/02/20 12:46:15;;;;;;;4.57;3.10;;;14.90;95.20;;;;;;5066788;28;20448;-83
2024/02/20 12:48:52;;;;;;;2.90;2.63;;;14.90;95.40;;;;;;5064811;28;20451;-79
2024/02/20 12:51:23;;;;;;;3.60;2.70;;;15.00;97.00;;;;;;5067680;28;20463;-80
2024/02/20 12:53:51;;;;;;;8.27;3.67;;;14.90;94.40;;;;;;5065680;28;20444;-85
2024/02/20 12:56:21;;;;;;;2.67;2.57;;;14.70;93.50;;;;;;5062187;28;20456;-80
2024/02/20 12:58:49;;;;;;;3.23;2.93;;;14.50;92.30;;;;;;5061221;28;20458;-81
2024/02/20 13:01:19;;;;;;;3.97;3.17;;;14.40;91.60;;;;;;5060296;28;20475;-82
2024/02/20 13:03:47;;;;;;;7.30;2.70;;;14.20;91.50;;;;;;5062065;28;20490;-82
2024/02/20 13:06:15;;;;;;;5.67;3.30;;;14.20;92.10;;;;;;5065529;28;20468;-81
2024/02/20 13:08:44;;;;;;;4.70;2.77;;;14.10;90.80;;;;;;5060635;28;20459;-79